sensor_id;sensor_type;location;lat;lon;timestamp;temperature;humidity
73572;DHT22;61854;48.510;-2.770;2023-02-15T00:01:57;10.00;69.10
73572;DHT22;61854;48.510;-2.770;2023-02-15T00:04:24;10.00;68.80
73572;DHT22;61854;48.510;-2.770;2023-02-15T00:06:50;10.00;68.80
73572;DHT22;61854;48.510;-2.770;2023-02-15T00:09:16;10.00;68.60
73572;DHT22;61854;48.510;-2.770;2023-02-15T00:11:42;10.00;68.50
73572;DHT22;61854;48.510;-2.770;2023-02-15T00:14:20;10.00;68.40
73572;DHT22;61854;48.510;-2.770;2023-02-15T00:16:47;10.00;68.30
73572;DHT22;61854;48.510;-2.770;2023-02-15T00:19:15;10.00;68.10
73572;DHT22;61854;48.510;-2.770;2023-02-15T00:21:41;10.00;68.20
73572;DHT22;61854;48.510;-2.770;2023-02-15T00:24:09;10.00;68.00
73572;DHT22;61854;48.510;-2.770;2023-02-15T00:26:35;10.00;68.20
73572;DHT22;61854;48.510;-2.770;2023-02-15T00:29:02;9.90;68.60
73572;DHT22;61854;48.510;-2.770;2023-02-15T00:31:30;9.90;68.50
73572;DHT22;61854;48.510;-2.770;2023-02-15T00:34:14;9.90;68.60
73572;DHT22;61854;48.510;-2.770;2023-02-15T00:36:41;9.90;68.60
73572;DHT22;61854;48.510;-2.770;2023-02-15T00:39:06;9.90;68.70
73572;DHT22;61854;48.510;-2.770;2023-02-15T00:41:33;9.90;69.00
73572;DHT22;61854;48.510;-2.770;2023-02-15T00:43:59;9.90;69.00
73572;DHT22;61854;48.510;-2.770;2023-02-15T00:46:25;9.80;69.10
73572;DHT22;61854;48.510;-2.770;2023-02-15T00:48:51;9.90;69.30
73572;DHT22;61854;48.510;-2.770;2023-02-15T00:51:17;9.90;69.40
73572;DHT22;61854;48.510;-2.770;2023-02-15T00:53:43;9.80;69.40
73572;DHT22;61854;48.510;-2.770;2023-02-15T00:56:10;9.80;69.60
73572;DHT22;61854;48.510;-2.770;2023-02-15T00:58:36;9.80;69.80
73572;DHT22;61854;48.510;-2.770;2023-02-15T01:01:26;9.70;70.00
73572;DHT22;61854;48.510;-2.770;2023-02-15T01:03:52;9.70;70.20
73572;DHT22;61854;48.510;-2.770;2023-02-15T01:06:17;9.70;71.00
73572;DHT22;61854;48.510;-2.770;2023-02-15T01:08:45;9.70;71.10
73572;DHT22;61854;48.510;-2.770;2023-02-15T01:11:17;9.70;71.30
73572;DHT22;61854;48.510;-2.770;2023-02-15T01:13:57;9.70;71.50
73572;DHT22;61854;48.510;-2.770;2023-02-15T01:16:25;9.70;71.60
73572;DHT22;61854;48.510;-2.770;2023-02-15T01:18:51;9.70;72.20
73572;DHT22;61854;48.510;-2.770;2023-02-15T01:21:20;9.70;72.30
73572;DHT22;61854;48.510;-2.770;2023-02-15T01:23:46;9.60;72.50
73572;DHT22;61854;48.510;-2.770;2023-02-15T01:26:12;9.60;72.90
73572;DHT22;61854;48.510;-2.770;2023-02-15T01:28:38;9.60;73.20
73572;DHT22;61854;48.510;-2.770;2023-02-15T01:31:05;9.50;73.40
73572;DHT22;61854;48.510;-2.770;2023-02-15T01:33:32;9.50;73.80
73572;DHT22;61854;48.510;-2.770;2023-02-15T01:35:58;9.60;73.90
73572;DHT22;61854;48.510;-2.770;2023-02-15T01:38:24;9.50;73.90
73572;DHT22;61854;48.510;-2.770;2023-02-15T01:40:53;9.50;74.20
73572;DHT22;61854;48.510;-2.770;2023-02-15T01:43:46;9.50;74.50
73572;DHT22;61854;48.510;-2.770;2023-02-15T01:46:13;9.40;75.00
73572;DHT22;61854;48.510;-2.770;2023-02-15T01:49:03;9.40;75.20
73572;DHT22;61854;48.510;-2.770;2023-02-15T01:51:32;9.40;75.60
73572;DHT22;61854;48.510;-2.770;2023-02-15T01:56:46;9.40;75.70
73572;DHT22;61854;48.510;-2.770;2023-02-15T01:59:17;9.40;75.70
73572;DHT22;61854;48.510;-2.770;2023-02-15T02:01:45;9.40;75.80
73572;DHT22;61854;48.510;-2.770;2023-02-15T02:06:46;9.40;75.60
73572;DHT22;61854;48.510;-2.770;2023-02-15T02:09:13;9.40;75.60
73572;DHT22;61854;48.510;-2.770;2023-02-15T02:11:40;9.40;75.50
73572;DHT22;61854;48.510;-2.770;2023-02-15T02:14:09;9.40;75.40
73572;DHT22;61854;48.510;-2.770;2023-02-15T02:28:29;9.10;76.30
73572;DHT22;61854;48.510;-2.770;2023-02-15T02:37:22;8.90;77.40
73572;DHT22;61854;48.510;-2.770;2023-02-15T02:39:43;8.80;77.80
73572;DHT22;61854;48.510;-2.770;2023-02-15T02:44:58;8.60;78.60
73572;DHT22;61854;48.510;-2.770;2023-02-15T02:50:09;8.50;79.50
73572;DHT22;61854;48.510;-2.770;2023-02-15T02:52:44;8.40;79.70
73572;DHT22;61854;48.510;-2.770;2023-02-15T02:55:55;8.40;80.00
73572;DHT22;61854;48.510;-2.770;2023-02-15T02:58:13;8.40;80.30
73572;DHT22;61854;48.510;-2.770;2023-02-15T03:00:43;8.40;80.20
73572;DHT22;61854;48.510;-2.770;2023-02-15T03:03:13;8.50;79.80
73572;DHT22;61854;48.510;-2.770;2023-02-15T03:05:44;8.60;79.20
73572;DHT22;61854;48.510;-2.770;2023-02-15T03:08:12;8.70;78.70
73572;DHT22;61854;48.510;-2.770;2023-02-15T03:10:40;8.80;78.20
73572;DHT22;61854;48.510;-2.770;2023-02-15T03:13:06;8.90;77.80
73572;DHT22;61854;48.510;-2.770;2023-02-15T03:15:38;8.90;77.40
73572;DHT22;61854;48.510;-2.770;2023-02-15T03:18:31;9.00;77.30
73572;DHT22;61854;48.510;-2.770;2023-02-15T03:20:59;9.00;77.10
73572;DHT22;61854;48.510;-2.770;2023-02-15T03:23:30;9.00;77.00
73572;DHT22;61854;48.510;-2.770;2023-02-15T03:25:59;9.00;77.00
73572;DHT22;61854;48.510;-2.770;2023-02-15T03:31:00;9.00;77.00
73572;DHT22;61854;48.510;-2.770;2023-02-15T03:33:28;9.00;77.00
73572;DHT22;61854;48.510;-2.770;2023-02-15T03:36:03;9.00;77.00
73572;DHT22;61854;48.510;-2.770;2023-02-15T03:38:40;9.00;77.00
73572;DHT22;61854;48.510;-2.770;2023-02-15T03:41:09;9.00;77.00
73572;DHT22;61854;48.510;-2.770;2023-02-15T03:43:58;9.00;76.90
73572;DHT22;61854;48.510;-2.770;2023-02-15T03:46:29;9.10;76.90
73572;DHT22;61854;48.510;-2.770;2023-02-15T03:49:21;9.00;77.00
73572;DHT22;61854;48.510;-2.770;2023-02-15T03:51:50;9.00;76.90
73572;DHT22;61854;48.510;-2.770;2023-02-15T03:54:26;9.00;76.80
73572;DHT22;61854;48.510;-2.770;2023-02-15T03:57:25;9.00;76.80
73572;DHT22;61854;48.510;-2.770;2023-02-15T04:00:21;9.00;76.70
73572;DHT22;61854;48.510;-2.770;2023-02-15T04:05:43;9.00;76.30
73572;DHT22;61854;48.510;-2.770;2023-02-15T04:08:09;8.90;76.30
73572;DHT22;61854;48.510;-2.770;2023-02-15T04:10:35;8.90;76.30
73572;DHT22;61854;48.510;-2.770;2023-02-15T04:13:30;8.90;76.50
73572;DHT22;61854;48.510;-2.770;2023-02-15T04:15:56;8.90;76.50
73572;DHT22;61854;48.510;-2.770;2023-02-15T04:18:35;9.00;76.60
73572;DHT22;61854;48.510;-2.770;2023-02-15T04:21:21;8.90;76.30
73572;DHT22;61854;48.510;-2.770;2023-02-15T04:24:06;8.90;76.30
73572;DHT22;61854;48.510;-2.770;2023-02-15T04:26:50;8.90;76.30
73572;DHT22;61854;48.510;-2.770;2023-02-15T04:29:19;8.90;76.20
73572;DHT22;61854;48.510;-2.770;2023-02-15T04:31:45;8.90;76.30
73572;DHT22;61854;48.510;-2.770;2023-02-15T04:34:11;8.90;76.30
73572;DHT22;61854;48.510;-2.770;2023-02-15T04:36:38;8.90;76.30
73572;DHT22;61854;48.510;-2.770;2023-02-15T04:39:04;8.90;76.30
73572;DHT22;61854;48.510;-2.770;2023-02-15T04:41:29;8.90;76.50
73572;DHT22;61854;48.510;-2.770;2023-02-15T04:43:55;8.90;76.70
73572;DHT22;61854;48.510;-2.770;2023-02-15T04:46:21;8.90;76.50
73572;DHT22;61854;48.510;-2.770;2023-02-15T04:48:47;8.90;76.30
73572;DHT22;61854;48.510;-2.770;2023-02-15T04:51:13;8.90;76.30
73572;DHT22;61854;48.510;-2.770;2023-02-15T04:53:38;8.90;76.30
73572;DHT22;61854;48.510;-2.770;2023-02-15T04:56:04;8.90;76.30
73572;DHT22;61854;48.510;-2.770;2023-02-15T04:58:30;8.90;76.30
73572;DHT22;61854;48.510;-2.770;2023-02-15T05:00:56;8.90;76.20
73572;DHT22;61854;48.510;-2.770;2023-02-15T05:03:22;8.90;76.20
73572;DHT22;61854;48.510;-2.770;2023-02-15T05:05:47;8.90;76.30
73572;DHT22;61854;48.510;-2.770;2023-02-15T05:08:13;8.90;76.20
73572;DHT22;61854;48.510;-2.770;2023-02-15T05:10:39;9.00;76.10
73572;DHT22;61854;48.510;-2.770;2023-02-15T05:13:05;9.00;76.00
73572;DHT22;61854;48.510;-2.770;2023-02-15T05:15:30;9.00;76.10
73572;DHT22;61854;48.510;-2.770;2023-02-15T05:17:56;9.00;76.00
73572;DHT22;61854;48.510;-2.770;2023-02-15T05:20:22;9.00;76.00
73572;DHT22;61854;48.510;-2.770;2023-02-15T05:22:48;9.00;76.10
73572;DHT22;61854;48.510;-2.770;2023-02-15T05:25:14;9.00;76.00
73572;DHT22;61854;48.510;-2.770;2023-02-15T05:27:58;9.00;75.90
73572;DHT22;61854;48.510;-2.770;2023-02-15T05:30:42;9.00;75.80
73572;DHT22;61854;48.510;-2.770;2023-02-15T05:33:08;9.10;76.80
73572;DHT22;61854;48.510;-2.770;2023-02-15T05:35:34;9.10;76.00
73572;DHT22;61854;48.510;-2.770;2023-02-15T05:38:00;9.00;76.00
73572;DHT22;61854;48.510;-2.770;2023-02-15T05:40:26;9.00;76.30
73572;DHT22;61854;48.510;-2.770;2023-02-15T05:42:51;9.00;76.30
73572;DHT22;61854;48.510;-2.770;2023-02-15T05:45:17;9.00;76.30
73572;DHT22;61854;48.510;-2.770;2023-02-15T05:47:43;8.90;76.30
73572;DHT22;61854;48.510;-2.770;2023-02-15T05:50:09;8.90;76.50
73572;DHT22;61854;48.510;-2.770;2023-02-15T05:52:35;8.90;76.80
73572;DHT22;61854;48.510;-2.770;2023-02-15T05:55:01;8.80;76.90
73572;DHT22;61854;48.510;-2.770;2023-02-15T05:57:28;8.80;77.00
73572;DHT22;61854;48.510;-2.770;2023-02-15T05:59:54;8.80;77.30
73572;DHT22;61854;48.510;-2.770;2023-02-15T06:02:19;8.80;77.40
73572;DHT22;61854;48.510;-2.770;2023-02-15T06:04:45;8.70;77.40
73572;DHT22;61854;48.510;-2.770;2023-02-15T06:07:10;8.70;77.60
73572;DHT22;61854;48.510;-2.770;2023-02-15T06:09:36;8.70;77.90
73572;DHT22;61854;48.510;-2.770;2023-02-15T06:12:02;8.70;78.80
73572;DHT22;61854;48.510;-2.770;2023-02-15T06:14:30;8.60;79.20
73572;DHT22;61854;48.510;-2.770;2023-02-15T06:16:56;8.60;79.80
73572;DHT22;61854;48.510;-2.770;2023-02-15T06:19:21;8.50;80.50
73572;DHT22;61854;48.510;-2.770;2023-02-15T06:21:48;8.50;81.20
73572;DHT22;61854;48.510;-2.770;2023-02-15T06:24:14;8.50;82.00
73572;DHT22;61854;48.510;-2.770;2023-02-15T06:26:40;8.40;82.00
73572;DHT22;61854;48.510;-2.770;2023-02-15T06:29:05;8.40;82.20
73572;DHT22;61854;48.510;-2.770;2023-02-15T06:31:31;8.30;81.60
73572;DHT22;61854;48.510;-2.770;2023-02-15T06:33:57;8.30;81.60
73572;DHT22;61854;48.510;-2.770;2023-02-15T06:36:29;8.30;81.60
73572;DHT22;61854;48.510;-2.770;2023-02-15T06:38:55;8.30;81.40
73572;DHT22;61854;48.510;-2.770;2023-02-15T06:41:21;8.30;81.50
73572;DHT22;61854;48.510;-2.770;2023-02-15T06:43:47;8.30;81.40
73572;DHT22;61854;48.510;-2.770;2023-02-15T06:46:12;8.30;81.40
73572;DHT22;61854;48.510;-2.770;2023-02-15T06:48:38;8.30;81.80
73572;DHT22;61854;48.510;-2.770;2023-02-15T06:51:04;8.30;82.20
73572;DHT22;61854;48.510;-2.770;2023-02-15T06:53:29;8.20;82.20
73572;DHT22;61854;48.510;-2.770;2023-02-15T06:56:06;8.20;82.50
73572;DHT22;61854;48.510;-2.770;2023-02-15T06:58:35;8.20;82.60
73572;DHT22;61854;48.510;-2.770;2023-02-15T07:01:01;8.20;82.80
73572;DHT22;61854;48.510;-2.770;2023-02-15T07:03:26;8.20;83.10
73572;DHT22;61854;48.510;-2.770;2023-02-15T07:06:00;8.20;83.20
73572;DHT22;61854;48.510;-2.770;2023-02-15T07:08:27;8.20;83.30
73572;DHT22;61854;48.510;-2.770;2023-02-15T07:10:53;8.10;83.30
73572;DHT22;61854;48.510;-2.770;2023-02-15T07:13:42;8.20;83.60
73572;DHT22;61854;48.510;-2.770;2023-02-15T07:16:08;8.20;83.80
73572;DHT22;61854;48.510;-2.770;2023-02-15T07:18:35;8.20;83.80
73572;DHT22;61854;48.510;-2.770;2023-02-15T07:21:01;8.10;83.80
73572;DHT22;61854;48.510;-2.770;2023-02-15T07:23:27;8.10;83.80
73572;DHT22;61854;48.510;-2.770;2023-02-15T07:25:57;8.10;84.00
73572;DHT22;61854;48.510;-2.770;2023-02-15T07:28:23;8.10;84.00
73572;DHT22;61854;48.510;-2.770;2023-02-15T07:30:49;8.10;84.00
73572;DHT22;61854;48.510;-2.770;2023-02-15T07:33:14;8.10;83.80
73572;DHT22;61854;48.510;-2.770;2023-02-15T07:35:55;8.10;83.80
73572;DHT22;61854;48.510;-2.770;2023-02-15T07:38:23;8.10;83.80
73572;DHT22;61854;48.510;-2.770;2023-02-15T07:40:50;8.00;83.70
73572;DHT22;61854;48.510;-2.770;2023-02-15T07:43:16;8.00;83.70
73572;DHT22;61854;48.510;-2.770;2023-02-15T07:45:42;8.00;83.90
73572;DHT22;61854;48.510;-2.770;2023-02-15T07:48:08;8.00;84.30
73572;DHT22;61854;48.510;-2.770;2023-02-15T07:50:34;7.90;84.40
73572;DHT22;61854;48.510;-2.770;2023-02-15T07:53:03;7.90;84.50
73572;DHT22;61854;48.510;-2.770;2023-02-15T07:55:29;7.90;84.60
73572;DHT22;61854;48.510;-2.770;2023-02-15T07:57:55;7.90;84.60
73572;DHT22;61854;48.510;-2.770;2023-02-15T08:00:22;8.00;84.50
73572;DHT22;61854;48.510;-2.770;2023-02-15T08:02:53;7.90;84.30
73572;DHT22;61854;48.510;-2.770;2023-02-15T08:05:38;7.90;84.30
73572;DHT22;61854;48.510;-2.770;2023-02-15T08:08:04;8.00;84.70
73572;DHT22;61854;48.510;-2.770;2023-02-15T08:10:30;8.00;84.80
73572;DHT22;61854;48.510;-2.770;2023-02-15T08:13:14;8.00;84.80
73572;DHT22;61854;48.510;-2.770;2023-02-15T08:15:40;8.10;84.90
73572;DHT22;61854;48.510;-2.770;2023-02-15T08:18:13;8.10;85.00
73572;DHT22;61854;48.510;-2.770;2023-02-15T08:20:39;8.20;85.10
73572;DHT22;61854;48.510;-2.770;2023-02-15T08:23:05;8.30;85.10
73572;DHT22;61854;48.510;-2.770;2023-02-15T08:25:31;8.30;85.00
73572;DHT22;61854;48.510;-2.770;2023-02-15T08:27:56;8.40;85.10
73572;DHT22;61854;48.510;-2.770;2023-02-15T08:30:22;8.50;85.00
73572;DHT22;61854;48.510;-2.770;2023-02-15T08:32:48;8.50;84.90
73572;DHT22;61854;48.510;-2.770;2023-02-15T08:35:13;8.60;84.90
73572;DHT22;61854;48.510;-2.770;2023-02-15T08:37:39;8.60;84.90
73572;DHT22;61854;48.510;-2.770;2023-02-15T08:40:05;8.70;84.90
73572;DHT22;61854;48.510;-2.770;2023-02-15T08:42:33;8.70;84.90
73572;DHT22;61854;48.510;-2.770;2023-02-15T08:44:58;8.80;84.90
73572;DHT22;61854;48.510;-2.770;2023-02-15T08:47:24;8.90;84.90
73572;DHT22;61854;48.510;-2.770;2023-02-15T08:49:50;8.90;84.90
73572;DHT22;61854;48.510;-2.770;2023-02-15T08:52:16;9.00;85.00
73572;DHT22;61854;48.510;-2.770;2023-02-15T08:54:42;9.10;85.00
73572;DHT22;61854;48.510;-2.770;2023-02-15T08:57:11;9.20;85.10
73572;DHT22;61854;48.510;-2.770;2023-02-15T08:59:37;9.30;85.30
73572;DHT22;61854;48.510;-2.770;2023-02-15T09:02:02;9.50;85.50
73572;DHT22;61854;48.510;-2.770;2023-02-15T09:04:28;10.00;85.10
73572;DHT22;61854;48.510;-2.770;2023-02-15T09:06:54;10.50;83.40
73572;DHT22;61854;48.510;-2.770;2023-02-15T09:09:21;11.00;81.60
73572;DHT22;61854;48.510;-2.770;2023-02-15T09:11:49;11.40;79.40
73572;DHT22;61854;48.510;-2.770;2023-02-15T09:14:17;11.70;77.40
73572;DHT22;61854;48.510;-2.770;2023-02-15T09:16:46;11.60;77.00
73572;DHT22;61854;48.510;-2.770;2023-02-15T09:19:14;11.30;77.60
73572;DHT22;61854;48.510;-2.770;2023-02-15T09:21:40;11.10;78.70
73572;DHT22;61854;48.510;-2.770;2023-02-15T09:24:11;11.00;79.60
73572;DHT22;61854;48.510;-2.770;2023-02-15T09:26:39;10.90;80.40
73572;DHT22;61854;48.510;-2.770;2023-02-15T09:29:10;10.80;81.10
73572;DHT22;61854;48.510;-2.770;2023-02-15T09:31:39;10.70;81.50
73572;DHT22;61854;48.510;-2.770;2023-02-15T09:34:06;10.70;81.90
73572;DHT22;61854;48.510;-2.770;2023-02-15T09:36:37;10.70;82.20
73572;DHT22;61854;48.510;-2.770;2023-02-15T09:39:11;10.60;82.50
73572;DHT22;61854;48.510;-2.770;2023-02-15T10:28:18;12.00;75.80
73572;DHT22;61854;48.510;-2.770;2023-02-15T10:30:47;12.00;75.60
73572;DHT22;61854;48.510;-2.770;2023-02-15T10:33:42;12.10;75.40
73572;DHT22;61854;48.510;-2.770;2023-02-15T10:44:47;12.20;74.00
73572;DHT22;61854;48.510;-2.770;2023-02-15T10:47:31;12.20;74.40
73572;DHT22;61854;48.510;-2.770;2023-02-15T10:56:27;12.30;74.00
73572;DHT22;61854;48.510;-2.770;2023-02-15T11:07:34;12.70;72.20
73572;DHT22;61854;48.510;-2.770;2023-02-15T11:10:01;12.70;72.40
73572;DHT22;61854;48.510;-2.770;2023-02-15T11:12:30;12.80;71.30
73572;DHT22;61854;48.510;-2.770;2023-02-15T11:17:55;13.00;68.10
73572;DHT22;61854;48.510;-2.770;2023-02-15T11:20:30;13.00;68.10
73572;DHT22;61854;48.510;-2.770;2023-02-15T11:22:56;13.10;69.00
73572;DHT22;61854;48.510;-2.770;2023-02-15T11:25:32;13.10;69.20
73572;DHT22;61854;48.510;-2.770;2023-02-15T11:28:00;13.30;65.30
73572;DHT22;61854;48.510;-2.770;2023-02-15T11:30:53;13.30;65.00
73572;DHT22;61854;48.510;-2.770;2023-02-15T11:33:31;13.30;65.30
73572;DHT22;61854;48.510;-2.770;2023-02-15T11:36:04;13.30;65.30
73572;DHT22;61854;48.510;-2.770;2023-02-15T11:38:34;13.40;64.80
73572;DHT22;61854;48.510;-2.770;2023-02-15T11:41:11;13.50;65.00
73572;DHT22;61854;48.510;-2.770;2023-02-15T11:44:14;13.50;66.10
73572;DHT22;61854;48.510;-2.770;2023-02-15T11:46:41;13.60;67.20
73572;DHT22;61854;48.510;-2.770;2023-02-15T11:51:46;13.70;67.20
73572;DHT22;61854;48.510;-2.770;2023-02-15T11:54:12;13.70;66.90
73572;DHT22;61854;48.510;-2.770;2023-02-15T11:56:38;13.80;65.30
73572;DHT22;61854;48.510;-2.770;2023-02-15T11:59:18;13.80;63.60
73572;DHT22;61854;48.510;-2.770;2023-02-15T12:01:46;13.90;63.60
73572;DHT22;61854;48.510;-2.770;2023-02-15T12:04:26;13.90;62.60
73572;DHT22;61854;48.510;-2.770;2023-02-15T12:12:29;13.90;63.80
73572;DHT22;61854;48.510;-2.770;2023-02-15T12:14:57;14.00;61.20
73572;DHT22;61854;48.510;-2.770;2023-02-15T12:17:29;14.10;59.30
73572;DHT22;61854;48.510;-2.770;2023-02-15T12:20:02;14.30;58.00
73572;DHT22;61854;48.510;-2.770;2023-02-15T12:22:31;14.40;57.50
73572;DHT22;61854;48.510;-2.770;2023-02-15T12:25:04;14.30;56.90
73572;DHT22;61854;48.510;-2.770;2023-02-15T12:27:43;14.40;56.50
73572;DHT22;61854;48.510;-2.770;2023-02-15T12:30:31;14.40;57.40
73572;DHT22;61854;48.510;-2.770;2023-02-15T12:35:45;14.40;57.40
73572;DHT22;61854;48.510;-2.770;2023-02-15T12:40:40;14.60;55.40
73572;DHT22;61854;48.510;-2.770;2023-02-15T12:45:52;14.60;55.70
73572;DHT22;61854;48.510;-2.770;2023-02-15T12:48:19;14.70;56.10
73572;DHT22;61854;48.510;-2.770;2023-02-15T12:50:47;14.60;56.40
73572;DHT22;61854;48.510;-2.770;2023-02-15T12:53:31;14.60;57.00
73572;DHT22;61854;48.510;-2.770;2023-02-15T12:58:28;14.60;56.00
73572;DHT22;61854;48.510;-2.770;2023-02-15T13:01:19;14.70;56.60
73572;DHT22;61854;48.510;-2.770;2023-02-15T13:03:59;14.80;56.20
73572;DHT22;61854;48.510;-2.770;2023-02-15T13:06:27;14.90;55.50
73572;DHT22;61854;48.510;-2.770;2023-02-15T13:08:56;15.00;54.50
73572;DHT22;61854;48.510;-2.770;2023-02-15T13:11:29;15.00;54.00
73572;DHT22;61854;48.510;-2.770;2023-02-15T13:14:02;15.10;53.30
73572;DHT22;61854;48.510;-2.770;2023-02-15T13:16:36;15.20;52.90
73572;DHT22;61854;48.510;-2.770;2023-02-15T13:19:16;15.20;55.60
73572;DHT22;61854;48.510;-2.770;2023-02-15T13:21:46;15.30;54.40
73572;DHT22;61854;48.510;-2.770;2023-02-15T13:24:22;15.40;54.40
73572;DHT22;61854;48.510;-2.770;2023-02-15T13:26:49;15.50;54.10
73572;DHT22;61854;48.510;-2.770;2023-02-15T13:29:29;15.60;53.10
73572;DHT22;61854;48.510;-2.770;2023-02-15T13:31:57;15.60;51.80
73572;DHT22;61854;48.510;-2.770;2023-02-15T13:34:28;15.70;51.20
73572;DHT22;61854;48.510;-2.770;2023-02-15T13:39:54;15.80;51.70
73572;DHT22;61854;48.510;-2.770;2023-02-15T13:45:25;15.90;50.60
73572;DHT22;61854;48.510;-2.770;2023-02-15T13:51:01;16.00;51.80
73572;DHT22;61854;48.510;-2.770;2023-02-15T13:56:40;16.70;49.70
73572;DHT22;61854;48.510;-2.770;2023-02-15T14:04:53;17.70;46.60
73572;DHT22;61854;48.510;-2.770;2023-02-15T14:21:58;18.90;47.20
73572;DHT22;61854;48.510;-2.770;2023-02-15T14:24:32;18.90;47.30
73572;DHT22;61854;48.510;-2.770;2023-02-15T14:27:34;18.90;46.60
73572;DHT22;61854;48.510;-2.770;2023-02-15T14:30:18;18.90;47.00
73572;DHT22;61854;48.510;-2.770;2023-02-15T14:32:54;18.80;47.60
73572;DHT22;61854;48.510;-2.770;2023-02-15T14:35:27;18.80;47.50
73572;DHT22;61854;48.510;-2.770;2023-02-15T14:38:13;18.90;47.60
73572;DHT22;61854;48.510;-2.770;2023-02-15T14:40:54;18.90;47.00
73572;DHT22;61854;48.510;-2.770;2023-02-15T14:44:00;19.00;46.60
73572;DHT22;61854;48.510;-2.770;2023-02-15T14:49:17;19.00;47.40
73572;DHT22;61854;48.510;-2.770;2023-02-15T15:02:43;19.30;47.40
73572;DHT22;61854;48.510;-2.770;2023-02-15T15:05:47;19.40;47.40
73572;DHT22;61854;48.510;-2.770;2023-02-15T15:08:26;19.50;47.20
73572;DHT22;61854;48.510;-2.770;2023-02-15T15:10:52;19.40;47.30
73572;DHT22;61854;48.510;-2.770;2023-02-15T15:15:57;19.50;46.60
73572;DHT22;61854;48.510;-2.770;2023-02-15T15:18:46;19.60;46.40
73572;DHT22;61854;48.510;-2.770;2023-02-15T15:21:51;19.60;46.20
73572;DHT22;61854;48.510;-2.770;2023-02-15T15:41:17;19.40;47.40
73572;DHT22;61854;48.510;-2.770;2023-02-15T15:44:11;19.50;47.60
73572;DHT22;61854;48.510;-2.770;2023-02-15T15:47:22;19.40;48.00
73572;DHT22;61854;48.510;-2.770;2023-02-15T15:49:56;19.50;47.70
73572;DHT22;61854;48.510;-2.770;2023-02-15T15:52:22;19.30;47.90
73572;DHT22;61854;48.510;-2.770;2023-02-15T15:54:51;18.80;49.20
73572;DHT22;61854;48.510;-2.770;2023-02-15T15:57:34;18.40;50.90
73572;DHT22;61854;48.510;-2.770;2023-02-15T16:00:00;17.90;53.30
73572;DHT22;61854;48.510;-2.770;2023-02-15T16:02:27;17.50;55.00
73572;DHT22;61854;48.510;-2.770;2023-02-15T16:04:53;17.30;56.60
73572;DHT22;61854;48.510;-2.770;2023-02-15T16:12:30;16.40;60.10
73572;DHT22;61854;48.510;-2.770;2023-02-15T16:14:57;16.20;61.80
73572;DHT22;61854;48.510;-2.770;2023-02-15T16:17:27;15.90;62.90
73572;DHT22;61854;48.510;-2.770;2023-02-15T16:20:03;15.70;63.70
73572;DHT22;61854;48.510;-2.770;2023-02-15T16:22:32;15.60;64.80
73572;DHT22;61854;48.510;-2.770;2023-02-15T16:27:52;15.30;66.50
73572;DHT22;61854;48.510;-2.770;2023-02-15T16:30:28;15.20;67.30
73572;DHT22;61854;48.510;-2.770;2023-02-15T16:33:15;15.10;67.80
73572;DHT22;61854;48.510;-2.770;2023-02-15T16:35:56;15.10;68.40
73572;DHT22;61854;48.510;-2.770;2023-02-15T16:40:59;14.90;69.20
73572;DHT22;61854;48.510;-2.770;2023-02-15T16:43:29;14.80;69.40
73572;DHT22;61854;48.510;-2.770;2023-02-15T16:46:18;14.70;69.90
73572;DHT22;61854;48.510;-2.770;2023-02-15T16:48:46;14.70;70.10
73572;DHT22;61854;48.510;-2.770;2023-02-15T16:51:22;14.70;70.20
73572;DHT22;61854;48.510;-2.770;2023-02-15T16:53:49;14.60;70.10
73572;DHT22;61854;48.510;-2.770;2023-02-15T16:56:15;14.60;70.60
73572;DHT22;61854;48.510;-2.770;2023-02-15T16:58:44;14.50;70.60
73572;DHT22;61854;48.510;-2.770;2023-02-15T17:01:13;14.50;70.80
73572;DHT22;61854;48.510;-2.770;2023-02-15T17:03:40;14.40;71.10
73572;DHT22;61854;48.510;-2.770;2023-02-15T17:06:27;14.40;71.40
73572;DHT22;61854;48.510;-2.770;2023-02-15T17:09:11;14.40;71.60
73572;DHT22;61854;48.510;-2.770;2023-02-15T17:11:42;14.40;71.80
73572;DHT22;61854;48.510;-2.770;2023-02-15T17:16:43;14.30;72.10
73572;DHT22;61854;48.510;-2.770;2023-02-15T17:19:29;14.20;72.30
73572;DHT22;61854;48.510;-2.770;2023-02-15T17:22:01;14.20;73.60
73572;DHT22;61854;48.510;-2.770;2023-02-15T17:24:35;14.20;72.50
73572;DHT22;61854;48.510;-2.770;2023-02-15T17:27:05;14.20;72.50
73572;DHT22;61854;48.510;-2.770;2023-02-15T17:29:41;14.20;72.40
73572;DHT22;61854;48.510;-2.770;2023-02-15T17:32:20;14.20;72.50
73572;DHT22;61854;48.510;-2.770;2023-02-15T17:37:30;14.10;72.60
73572;DHT22;61854;48.510;-2.770;2023-02-15T17:39:58;14.10;72.70
73572;DHT22;61854;48.510;-2.770;2023-02-15T17:42:24;14.10;72.90
73572;DHT22;61854;48.510;-2.770;2023-02-15T17:44:50;14.00;73.00
73572;DHT22;61854;48.510;-2.770;2023-02-15T17:47:18;14.00;73.20
73572;DHT22;61854;48.510;-2.770;2023-02-15T17:49:44;13.90;73.60
73572;DHT22;61854;48.510;-2.770;2023-02-15T17:52:12;13.90;73.80
73572;DHT22;61854;48.510;-2.770;2023-02-15T17:54:39;13.90;74.10
73572;DHT22;61854;48.510;-2.770;2023-02-15T17:57:23;13.90;74.60
73572;DHT22;61854;48.510;-2.770;2023-02-15T17:59:51;13.80;74.60
73572;DHT22;61854;48.510;-2.770;2023-02-15T18:02:35;13.80;75.00
73572;DHT22;61854;48.510;-2.770;2023-02-15T18:05:20;13.80;75.40
73572;DHT22;61854;48.510;-2.770;2023-02-15T18:08:25;13.80;75.50
73572;DHT22;61854;48.510;-2.770;2023-02-15T18:11:09;13.70;76.20
73572;DHT22;61854;48.510;-2.770;2023-02-15T18:13:54;13.70;76.00
73572;DHT22;61854;48.510;-2.770;2023-02-15T18:16:28;13.70;76.20
73572;DHT22;61854;48.510;-2.770;2023-02-15T18:18:57;13.70;76.50
73572;DHT22;61854;48.510;-2.770;2023-02-15T18:21:24;13.60;76.60
73572;DHT22;61854;48.510;-2.770;2023-02-15T18:23:50;13.60;76.70
73572;DHT22;61854;48.510;-2.770;2023-02-15T18:26:23;13.60;76.70
73572;DHT22;61854;48.510;-2.770;2023-02-15T18:28:51;13.60;76.70
73572;DHT22;61854;48.510;-2.770;2023-02-15T18:31:17;13.60;77.70
73572;DHT22;61854;48.510;-2.770;2023-02-15T18:33:44;13.50;76.30
73572;DHT22;61854;48.510;-2.770;2023-02-15T18:36:21;13.50;76.20
73572;DHT22;61854;48.510;-2.770;2023-02-15T18:38:48;13.50;76.10
73572;DHT22;61854;48.510;-2.770;2023-02-15T18:41:16;13.50;75.90
73572;DHT22;61854;48.510;-2.770;2023-02-15T18:43:43;13.40;75.80
73572;DHT22;61854;48.510;-2.770;2023-02-15T18:46:10;13.40;75.80
73572;DHT22;61854;48.510;-2.770;2023-02-15T18:48:36;13.40;77.00
73572;DHT22;61854;48.510;-2.770;2023-02-15T18:51:02;13.30;76.10
73572;DHT22;61854;48.510;-2.770;2023-02-15T18:53:28;13.30;77.40
73572;DHT22;61854;48.510;-2.770;2023-02-15T18:55:53;13.20;76.60
73572;DHT22;61854;48.510;-2.770;2023-02-15T18:58:21;13.20;76.80
73572;DHT22;61854;48.510;-2.770;2023-02-15T19:00:48;13.10;77.10
73572;DHT22;61854;48.510;-2.770;2023-02-15T19:03:15;13.10;77.40
73572;DHT22;61854;48.510;-2.770;2023-02-15T19:05:44;13.00;77.40
73572;DHT22;61854;48.510;-2.770;2023-02-15T19:08:18;13.00;77.50
73572;DHT22;61854;48.510;-2.770;2023-02-15T19:10:46;12.90;77.60
73572;DHT22;61854;48.510;-2.770;2023-02-15T19:13:12;12.90;77.80
73572;DHT22;61854;48.510;-2.770;2023-02-15T19:15:38;12.90;77.80